Time;durP1;ratioP1;P1;durP2;ratioP2;P2;SDS_P1;SDS_P2;PMS_P1;PMS_P2;Temp;Humidity;BMP_temperature;BMP_pressure;BME280_temperature;BME280_humidity;BME280_pressure;Samples;Min_cycle;Max_cycle;Signal;HPM_P1;HPM_P2
2022/06/12 00:01:10;;;;;;;6.45;4.03;;;15.30;99.90;;;;;;5032434;28;20025;-75
2022/06/12 00:03:38;;;;;;;9.15;4.70;;;15.20;99.90;;;;;;5032758;28;20025;-76
2022/06/12 00:06:06;;;;;;;6.93;4.38;;;15.20;99.90;;;;;;5033291;28;20034;-76
2022/06/12 00:08:38;;;;;;;7.50;4.40;;;15.20;99.90;;;;;;5042652;28;20394;-76
2022/06/12 00:11:07;;;;;;;5.03;4.25;;;15.20;99.90;;;;;;5034465;28;20044;-76
2022/06/12 00:13:42;;;;;;;5.13;4.00;;;15.20;99.90;;;;;;5046949;28;20045;-77
2022/06/12 00:16:11;;;;;;;8.15;4.68;;;15.20;99.90;;;;;;5033723;28;20483;-75
2022/06/12 00:18:38;;;;;;;8.27;4.83;;;15.10;99.90;;;;;;5033961;28;20029;-76
2022/06/12 00:21:10;;;;;;;6.03;4.15;;;15.20;99.90;;;;;;5038944;28;20044;-76
2022/06/12 00:23:44;;;;;;;5.28;4.10;;;15.20;99.90;;;;;;5041560;28;20467;-75
2022/06/12 00:26:11;;;;;;;7.50;4.68;;;15.20;99.90;;;;;;5037405;28;20041;-78
2022/06/12 00:28:38;;;;;;;7.32;4.72;;;15.20;99.90;;;;;;5022584;28;20049;-76
2022/06/12 00:31:04;;;;;;;6.50;4.43;;;15.20;99.90;;;;;;5040391;28;20037;-76
2022/06/12 00:33:31;;;;;;;5.85;3.97;;;15.20;99.90;;;;;;5056202;28;20545;-76
2022/06/12 00:35:58;;;;;;;6.43;4.38;;;15.10;99.90;;;;;;5050562;28;20033;-76
2022/06/12 00:38:25;;;;;;;6.18;4.80;;;15.10;99.90;;;;;;5039878;28;20030;-76
2022/06/12 00:40:52;;;;;;;10.25;4.75;;;15.10;99.90;;;;;;5023035;28;20049;-74
2022/06/12 00:43:19;;;;;;;7.00;3.90;;;15.20;99.90;;;;;;5064932;28;20037;-77
2022/06/12 00:45:53;;;;;;;4.65;3.75;;;15.20;99.90;;;;;;5071272;28;20046;-75
2022/06/12 00:48:25;;;;;;;5.82;4.18;;;15.10;99.90;;;;;;5039676;28;20386;-76
2022/06/12 00:51:06;;;;;;;6.75;4.30;;;15.20;99.90;;;;;;5054061;28;20041;-76
2022/06/12 00:53:42;;;;;;;5.43;3.70;;;15.20;99.90;;;;;;5039790;28;20040;-76
2022/06/12 00:56:34;;;;;;;5.85;4.40;;;15.10;99.90;;;;;;5038929;28;20049;-76
2022/06/12 00:59:09;;;;;;;9.02;4.45;;;15.20;99.90;;;;;;5031926;28;20037;-76
2022/06/12 01:01:40;;;;;;;7.32;4.10;;;15.10;99.90;;;;;;5037202;28;20045;-76
2022/06/12 01:06:55;;;;;;;5.43;4.22;;;15.10;99.90;;;;;;5047335;28;19909;-75
2022/06/12 01:09:38;;;;;;;4.28;3.53;;;14.90;99.90;;;;;;5037722;28;20493;-75
2022/06/12 01:12:08;;;;;;;6.45;4.72;;;14.70;99.90;;;;;;5038931;28;20410;-75
2022/06/12 01:14:42;;;;;;;5.80;4.03;;;14.60;99.90;;;;;;5038991;28;20037;-74
2022/06/12 01:17:10;;;;;;;8.45;4.47;;;14.60;99.90;;;;;;5037663;28;20045;-75
2022/06/12 01:19:53;;;;;;;6.22;3.85;;;14.70;99.90;;;;;;5039267;28;20058;-74
2022/06/12 01:22:26;;;;;;;7.47;4.45;;;14.70;99.90;;;;;;5038651;28;20044;-74
2022/06/12 01:25:04;;;;;;;5.68;4.55;;;14.60;99.90;;;;;;5038151;28;20049;-75
2022/06/12 01:27:59;;;;;;;6.80;4.03;;;14.60;99.90;;;;;;5038684;28;20458;-75
2022/06/12 01:30:38;;;;;;;5.90;4.35;;;14.60;99.90;;;;;;5038446;28;20029;-75
2022/06/12 01:33:21;;;;;;;5.07;4.22;;;14.50;99.90;;;;;;5049482;28;20048;-75
2022/06/12 01:35:59;;;;;;;5.32;3.65;;;14.30;99.90;;;;;;5038311;28;20040;-75
2022/06/12 01:38:52;;;;;;;6.63;4.28;;;14.20;99.90;;;;;;5035059;28;20040;-74
2022/06/12 01:41:54;;;;;;;7.53;4.32;;;14.10;99.90;;;;;;5043528;28;20046;-77
2022/06/12 01:44:45;;;;;;;4.60;3.90;;;14.10;99.90;;;;;;5039177;28;20048;-75
2022/06/12 01:47:47;;;;;;;;;;;14.20;99.90;;;;;;5051243;28;20041;-77
2022/06/12 01:50:17;;;;;;;7.50;4.60;;;14.10;99.90;;;;;;5022295;28;20405;-76
2022/06/12 01:53:02;;;;;;;;;;;14.10;99.90;;;;;;5035478;28;20045;-74
2022/06/12 01:55:36;;;;;;;5.10;3.92;;;14.10;99.90;;;;;;5034496;28;20278;-76
2022/06/12 01:58:29;;;;;;;6.88;3.90;;;14.10;99.90;;;;;;5034177;28;20041;-75
2022/06/12 02:01:06;;;;;;;5.07;4.35;;;13.90;99.90;;;;;;5043180;28;20045;-75
2022/06/12 02:03:43;;;;;;;6.32;3.95;;;13.90;99.90;;;;;;5033258;28;20025;-74
2022/06/12 02:06:18;;;;;;;6.53;3.85;;;13.80;99.90;;;;;;5048572;28;20037;-75
2022/06/12 02:08:56;;;;;;;7.25;4.03;;;13.80;99.90;;;;;;5034817;28;20036;-75
2022/06/12 02:14:34;;;;;;;6.50;3.90;;;13.50;99.90;;;;;;5045593;28;20046;-75
2022/06/12 02:17:03;;;;;;;5.35;4.30;;;13.50;99.90;;;;;;5044747;28;20038;-76
2022/06/12 02:19:35;;;;;;;6.82;4.15;;;13.50;99.90;;;;;;5034871;28;20057;-75
2022/06/12 02:22:04;;;;;;;6.13;4.75;;;13.50;99.90;;;;;;5034448;28;20033;-75
2022/06/12 02:24:53;;;;;;;6.03;4.57;;;13.50;99.90;;;;;;5051184;28;20033;-76
2022/06/12 02:27:26;;;;;;;8.00;4.25;;;13.60;99.90;;;;;;5033863;28;20045;-75
2022/06/12 02:29:59;;;;;;;8.50;5.15;;;13.60;99.90;;;;;;5036992;28;20041;-74
2022/06/12 02:32:36;;;;;;;6.80;4.68;;;13.70;99.90;;;;;;5033842;28;20052;-75
2022/06/12 02:35:08;;;;;;;6.70;3.78;;;13.90;99.90;;;;;;5048988;28;20478;-75
2022/06/12 02:37:40;;;;;;;7.20;4.65;;;14.00;99.90;;;;;;5051888;28;20033;-75
2022/06/12 02:40:17;;;;;;;5.85;4.03;;;13.90;99.90;;;;;;5036251;28;20048;-75
2022/06/12 02:42:46;;;;;;;6.53;4.70;;;13.90;99.90;;;;;;5033618;28;20061;-75
2022/06/12 02:45:23;;;;;;;9.88;4.25;;;13.90;99.90;;;;;;5033811;28;20124;-77
2022/06/12 02:47:51;;;;;;;5.85;3.70;;;13.90;99.90;;;;;;5034321;28;20033;-75
2022/06/12 02:50:22;;;;;;;5.05;4.30;;;13.90;99.90;;;;;;5033670;28;20049;-75
2022/06/12 02:53:11;;;;;;;7.68;5.05;;;13.80;99.90;;;;;;5034067;28;20037;-75
2022/06/12 02:55:43;;;;;;;5.15;4.35;;;13.70;99.90;;;;;;5033311;28;20036;-75
2022/06/12 02:58:17;;;;;;;6.97;4.85;;;13.60;99.90;;;;;;5033917;28;20099;-74
2022/06/12 03:01:07;;;;;;;5.07;4.22;;;13.60;99.90;;;;;;5041130;28;20040;-75
2022/06/12 03:03:41;;;;;;;5.25;3.97;;;13.70;99.90;;;;;;5044812;28;20390;-75
2022/06/12 03:06:08;;;;;;;8.40;4.15;;;13.70;99.90;;;;;;5033342;28;20041;-76
2022/06/12 03:08:40;;;;;;;4.47;3.83;;;13.70;99.90;;;;;;5033190;28;20475;-75
2022/06/12 03:11:10;;;;;;;5.82;4.25;;;13.70;99.90;;;;;;5044369;28;20037;-74
2022/06/12 03:13:37;;;;;;;5.07;4.03;;;13.80;99.90;;;;;;5033607;28;20053;-74
2022/06/12 03:16:07;;;;;;;7.93;6.53;;;13.80;99.90;;;;;;5032755;28;20045;-74
2022/06/12 03:18:39;;;;;;;5.80;3.63;;;13.70;99.90;;;;;;5033835;28;20037;-74
2022/06/12 03:21:23;;;;;;;7.30;3.47;;;13.70;99.90;;;;;;5052387;28;20049;-74
2022/06/12 03:24:02;;;;;;;4.93;3.97;;;13.60;99.90;;;;;;5052613;28;20025;-77
2022/06/12 03:27:02;;;;;;;5.63;4.45;;;13.60;99.90;;;;;;5033897;28;20042;-78
2022/06/12 03:29:56;;;;;;;5.30;4.80;;;13.70;99.90;;;;;;5042444;28;20052;-77
2022/06/12 03:32:36;;;;;;;7.35;4.15;;;13.60;99.90;;;;;;5032388;28;20042;-76
2022/06/12 03:35:20;;;;;;;6.72;4.03;;;13.70;99.90;;;;;;5050085;28;20394;-76
2022/06/12 03:38:00;;;;;;;9.00;5.43;;;13.80;99.90;;;;;;5053165;28;20025;-77
2022/06/12 03:40:32;;;;;;;6.50;4.07;;;13.80;99.90;;;;;;5031052;28;20041;-77
2022/06/12 03:43:07;;;;;;;4.97;3.53;;;13.80;99.90;;;;;;5049645;28;20060;-77
2022/06/12 03:45:52;;;;;;;5.47;4.00;;;13.90;99.90;;;;;;5037840;28;20038;-76
2022/06/12 03:48:39;;;;;;;7.05;3.88;;;13.90;99.90;;;;;;5033036;28;20021;-76
2022/06/12 03:51:23;;;;;;;5.57;3.45;;;13.90;99.90;;;;;;5032824;28;20052;-76
2022/06/12 03:53:56;;;;;;;6.82;3.55;;;13.90;99.90;;;;;;5033456;28;20042;-76
2022/06/12 03:59:42;;;;;;;4.22;3.63;;;13.90;99.90;;;;;;5031979;28;20041;-76
2022/06/12 04:02:15;;;;;;;8.35;4.18;;;13.90;99.90;;;;;;5032671;28;20033;-76
2022/06/12 04:04:44;;;;;;;5.28;4.07;;;14.00;99.90;;;;;;5048842;28;20037;-76
2022/06/12 04:07:14;;;;;;;5.40;4.22;;;14.10;99.90;;;;;;5032924;28;20030;-77
2022/06/12 04:09:45;;;;;;;5.07;3.37;;;14.30;99.90;;;;;;5032655;28;20029;-76
2022/06/12 04:12:21;;;;;;;5.13;3.70;;;14.50;99.90;;;;;;5031611;28;20304;-76
2022/06/12 04:15:01;;;;;;;6.00;3.72;;;14.70;99.90;;;;;;5015085;28;20045;-77
2022/06/12 04:17:28;;;;;;;5.63;4.25;;;14.90;99.90;;;;;;5032235;28;20034;-77
2022/06/12 04:20:00;;;;;;;5.15;3.25;;;15.40;99.90;;;;;;5052879;28;20355;-74
2022/06/12 04:22:56;;;;;;;4.30;3.20;;;16.50;99.90;;;;;;5051031;28;20107;-74
2022/06/12 04:25:34;;;;;;;5.32;2.60;;;18.00;99.90;;;;;;5033744;28;20048;-74
2022/06/12 04:28:01;;;;;;;4.30;2.40;;;18.80;99.90;;;;;;5050335;28;20497;-75
2022/06/12 04:30:38;;;;;;;5.72;2.40;;;18.40;99.90;;;;;;5048517;28;20025;-74
2022/06/12 04:33:18;;;;;;;3.70;3.35;;;17.60;99.90;;;;;;5032522;28;20036;-74
2022/06/12 04:35:58;;;;;;;3.13;2.60;;;17.90;99.90;;;;;;5031994;28;20033;-75
2022/06/12 04:38:27;;;;;;;4.80;2.97;;;19.20;99.90;;;;;;5036490;28;20033;-74
2022/06/12 04:40:53;;;;;;;2.90;2.40;;;19.80;99.00;;;;;;5038810;28;20478;-75
2022/06/12 04:43:20;;;;;;;3.58;2.33;;;20.50;97.30;;;;;;5031983;28;20501;-74
2022/06/12 04:45:47;;;;;;;2.90;2.60;;;20.20;97.20;;;;;;5044024;28;20386;-74
2022/06/12 04:48:29;;;;;;;4.15;2.80;;;19.70;98.00;;;;;;5036459;28;20041;-74
2022/06/12 04:50:55;;;;;;;4.53;2.85;;;19.70;98.80;;;;;;5031094;28;20045;-74
2022/06/12 04:53:21;;;;;;;3.50;2.70;;;20.50;97.30;;;;;;5047054;28;20050;-74
2022/06/12 04:55:48;;;;;;;5.40;2.97;;;20.80;95.90;;;;;;5031328;28;20033;-74
2022/06/12 04:58:14;;;;;;;4.20;3.05;;;20.50;96.60;;;;;;5032525;28;20034;-75
2022/06/12 05:00:41;;;;;;;5.22;2.78;;;20.40;96.90;;;;;;5031750;28;20045;-76
2022/06/12 05:03:07;;;;;;;5.55;3.85;;;20.10;97.50;;;;;;5032248;28;20394;-76
2022/06/12 05:05:33;;;;;;;4.45;2.90;;;19.70;98.60;;;;;;5045732;28;20033;-74
2022/06/12 05:07:59;;;;;;;3.90;3.20;;;19.20;99.90;;;;;;5034737;28;20037;-74
2022/06/12 05:10:26;;;;;;;7.10;4.03;;;19.00;99.90;;;;;;5040378;28;20025;-74
2022/06/12 05:12:53;;;;;;;4.05;3.42;;;19.50;99.90;;;;;;5024872;28;20068;-74
2022/06/12 05:15:19;;;;;;;5.25;3.17;;;20.00;99.90;;;;;;5045086;28;20041;-75
2022/06/12 05:17:47;;;;;;;4.47;3.28;;;20.40;99.40;;;;;;5036002;28;20018;-74
2022/06/12 05:20:20;;;;;;;4.32;2.53;;;20.20;98.80;;;;;;5036035;28;20037;-74
2022/06/12 05:22:47;;;;;;;4.00;2.83;;;20.10;99.30;;;;;;5034996;28;20050;-76
2022/06/12 05:25:15;;;;;;;6.38;3.20;;;20.00;99.90;;;;;;5056323;28;20029;-75
2022/06/12 05:27:44;;;;;;;6.15;2.80;;;20.10;99.70;;;;;;5037765;28;20029;-76
2022/06/12 05:30:14;;;;;;;4.90;3.03;;;21.20;98.20;;;;;;5036245;28;20036;-76
2022/06/12 05:32:41;;;;;;;6.03;2.88;;;22.50;94.30;;;;;;5036053;28;20170;-75
2022/06/12 05:35:09;;;;;;;3.33;2.60;;;22.70;92.60;;;;;;5035775;28;20048;-76
2022/06/12 05:37:36;;;;;;;3.47;2.78;;;23.00;91.90;;;;;;5034455;28;20041;-76
2022/06/12 05:40:05;;;;;;;3.50;2.95;;;23.60;89.70;;;;;;5034423;28;20044;-75
2022/06/12 05:42:31;;;;;;;5.35;3.20;;;22.60;90.60;;;;;;5034565;28;20479;-78
2022/06/12 05:44:58;;;;;;;3.97;2.28;;;22.70;91.40;;;;;;5037789;28;20042;-76
2022/06/12 05:47:24;;;;;;;2.83;2.30;;;23.20;89.80;;;;;;5054741;28;20033;-76
2022/06/12 05:49:50;;;;;;;4.57;1.95;;;23.90;85.90;;;;;;5051077;28;20505;-75
2022/06/12 05:52:17;;;;;;;3.78;2.05;;;24.20;83.80;;;;;;5034668;28;20041;-78
2022/06/12 05:54:43;;;;;;;3.92;1.73;;;23.50;85.50;;;;;;5038326;28;20041;-75
2022/06/12 05:57:09;;;;;;;4.93;1.92;;;23.10;88.70;;;;;;5041787;28;20033;-77
2022/06/12 05:59:35;;;;;;;2.80;1.88;;;24.10;83.50;;;;;;5049968;28;20037;-74
2022/06/12 06:02:02;;;;;;;4.50;2.30;;;24.40;81.90;;;;;;5017374;28;20049;-74
2022/06/12 06:04:28;;;;;;;6.22;2.00;;;24.60;80.40;;;;;;5035078;28;20029;-74
2022/06/12 06:06:58;;;;;;;3.05;1.95;;;23.80;82.90;;;;;;5042791;28;20044;-74
2022/06/12 06:09:25;;;;;;;3.25;1.90;;;23.50;85.50;;;;;;5038652;28;20048;-74
2022/06/12 06:11:53;;;;;;;2.97;1.80;;;24.40;81.20;;;;;;5036321;28;20048;-74
2022/06/12 06:14:19;;;;;;;6.55;2.20;;;25.50;77.90;;;;;;5035267;28;20049;-74
2022/06/12 06:16:47;;;;;;;3.65;1.70;;;25.20;75.80;;;;;;5034881;28;20470;-74
2022/06/12 06:19:14;;;;;;;3.15;1.50;;;25.00;79.00;;;;;;5034181;28;20033;-74
2022/06/12 06:21:40;;;;;;;2.75;1.75;;;25.00;78.50;;;;;;5034130;28;20037;-74
2022/06/12 06:24:08;;;;;;;5.68;2.00;;;24.20;78.10;;;;;;5033552;28;20033;-74
2022/06/12 06:26:35;;;;;;;7.28;2.20;;;23.00;83.60;;;;;;5032572;28;20029;-73
2022/06/12 06:29:02;;;;;;;5.30;2.20;;;22.40;85.80;;;;;;5037198;28;20041;-73
2022/06/12 06:31:29;;;;;;;4.90;2.40;;;21.80;90.50;;;;;;5033979;28;20041;-76
2022/06/12 06:33:55;;;;;;;4.68;2.10;;;21.40;92.80;;;;;;5033795;28;20037;-74
2022/06/12 06:36:22;;;;;;;4.78;2.15;;;21.20;94.20;;;;;;5032915;28;20052;-74
2022/06/12 06:38:52;;;;;;;3.92;2.30;;;21.30;94.20;;;;;;5047211;28;20037;-75
2022/06/12 06:41:19;;;;;;;7.10;2.50;;;21.30;93.80;;;;;;5032530;28;20026;-76
2022/06/12 06:46:30;;;;;;;5.93;2.80;;;21.10;94.40;;;;;;5046565;28;20038;-75
2022/06/12 06:48:56;;;;;;;3.88;2.40;;;21.20;94.20;;;;;;5033907;28;20040;-75
2022/06/12 06:51:23;;;;;;;4.05;2.17;;;21.80;94.40;;;;;;5034724;28;20022;-75
2022/06/12 06:53:50;;;;;;;4.07;2.10;;;22.50;91.60;;;;;;5032698;28;20450;-76
2022/06/12 06:56:16;;;;;;;6.15;2.83;;;22.80;91.50;;;;;;5033667;28;20026;-75
2022/06/12 06:58:43;;;;;;;6.22;1.90;;;22.30;90.90;;;;;;5032715;28;20042;-75
2022/06/12 07:01:10;;;;;;;4.95;2.45;;;22.20;92.40;;;;;;5033214;28;20041;-75
2022/06/12 07:03:37;;;;;;;5.47;2.28;;;22.70;91.80;;;;;;5039946;28;20025;-75
2022/06/12 07:06:03;;;;;;;5.25;2.10;;;23.00;90.00;;;;;;5043126;28;20041;-75
2022/06/12 07:08:30;;;;;;;4.90;2.53;;;22.90;90.90;;;;;;5032154;28;20041;-75
2022/06/12 07:10:57;;;;;;;3.30;1.80;;;23.90;87.50;;;;;;5050309;28;20045;-78
2022/06/12 07:13:24;;;;;;;2.10;1.50;;;24.90;81.70;;;;;;5033447;28;20049;-76
2022/06/12 07:15:51;;;;;;;3.15;2.03;;;26.70;78.30;;;;;;5033552;28;20042;-74
2022/06/12 07:18:19;;;;;;;2.22;1.58;;;26.30;73.80;;;;;;5032534;28;20026;-74
2022/06/12 07:20:50;;;;;;;8.48;1.73;;;26.80;72.80;;;;;;5033403;28;20041;-74
2022/06/12 07:23:20;;;;;;;3.20;1.60;;;27.20;69.30;;;;;;5046333;28;20037;-74
2022/06/12 07:25:50;;;;;;;2.90;1.77;;;26.40;70.20;;;;;;5034660;28;20044;-74
2022/06/12 07:28:17;;;;;;;4.72;1.60;;;25.50;72.10;;;;;;5033438;28;20474;-74
2022/06/12 07:30:43;;;;;;;4.40;1.55;;;24.90;72.90;;;;;;5050045;28;20367;-75
2022/06/12 07:33:09;;;;;;;4.32;1.63;;;25.60;74.10;;;;;;5051284;28;20064;-75
2022/06/12 07:35:38;;;;;;;3.92;1.52;;;26.30;70.60;;;;;;5036876;28;20033;-74
2022/06/12 07:38:04;;;;;;;3.28;1.55;;;25.50;71.70;;;;;;5044663;28;20402;-75
2022/06/12 07:40:41;;;;;;;4.00;1.55;;;25.30;72.80;;;;;;5032283;28;20040;-76
2022/06/12 07:43:08;;;;;;;10.43;1.58;;;25.60;72.40;;;;;;5032913;28;20045;-75
2022/06/12 07:45:39;;;;;;;4.53;2.50;;;25.20;73.70;;;;;;5031676;28;20045;-75
2022/06/12 07:48:06;;;;;;;5.22;1.60;;;25.50;72.40;;;;;;5037575;28;20029;-76
2022/06/12 07:50:33;;;;;;;2.15;1.40;;;26.60;70.10;;;;;;5033075;28;20041;-76
2022/06/12 07:52:59;;;;;;;2.80;1.27;;;27.50;67.30;;;;;;5064678;28;20403;-75
2022/06/12 07:55:26;;;;;;;6.03;1.90;;;27.20;66.20;;;;;;5032575;28;20140;-75
2022/06/12 07:57:53;;;;;;;3.42;1.95;;;26.60;66.80;;;;;;5031598;28;20045;-75
2022/06/12 08:00:20;;;;;;;4.13;1.83;;;26.20;67.90;;;;;;5032714;28;20378;-76
2022/06/12 08:02:46;;;;;;;3.70;2.03;;;26.90;67.00;;;;;;5043446;28;20038;-77
2022/06/12 08:05:15;;;;;;;4.35;2.00;;;27.40;65.40;;;;;;5032988;28;20052;-75
2022/06/12 08:07:41;;;;;;;2.85;1.67;;;26.70;66.30;;;;;;5047495;28;20391;-76
2022/06/12 08:10:09;;;;;;;3.30;1.77;;;25.60;69.60;;;;;;5031769;28;20033;-75
2022/06/12 08:12:37;;;;;;;4.55;2.13;;;25.20;70.30;;;;;;5042990;28;20045;-76
2022/06/12 08:15:07;;;;;;;3.88;1.50;;;25.20;70.80;;;;;;5032118;28;20030;-75
2022/06/12 08:17:34;;;;;;;3.05;1.40;;;26.00;71.40;;;;;;5036445;28;20036;-75
2022/06/12 08:22:45;;;;;;;4.22;1.85;;;26.70;68.10;;;;;;5031942;28;20045;-76
2022/06/12 08:25:11;;;;;;;3.83;2.00;;;27.30;67.20;;;;;;5033065;28;20029;-75
2022/06/12 08:27:37;;;;;;;4.88;2.22;;;27.20;65.70;;;;;;5052225;28;20029;-75
2022/06/12 08:30:09;;;;;;;2.55;1.58;;;26.60;66.80;;;;;;5032811;28;20033;-75
2022/06/12 08:32:35;;;;;;;3.30;1.63;;;25.80;69.70;;;;;;5036096;28;20033;-73
2022/06/12 08:35:08;;;;;;;5.15;2.05;;;25.90;68.50;;;;;;5036000;28;20474;-73
2022/06/12 08:37:37;;;;;;;2.75;1.63;;;25.40;69.90;;;;;;5031682;28;20033;-77
2022/06/12 08:40:09;;;;;;;2.63;1.48;;;25.20;70.30;;;;;;5032081;28;20040;-78
2022/06/12 08:42:44;;;;;;;2.15;1.30;;;26.50;73.10;;;;;;5030581;28;20049;-73
2022/06/12 08:45:22;;;;;;;1.52;1.08;;;27.70;65.00;;;;;;5031150;28;20038;-73
2022/06/12 08:47:58;;;;;;;5.63;1.77;;;27.60;64.20;;;;;;5034905;28;20029;-73
2022/06/12 08:50:36;;;;;;;4.85;1.48;;;27.10;63.30;;;;;;5034383;28;20038;-74
2022/06/12 08:53:17;;;;;;;3.25;1.38;;;26.90;64.90;;;;;;5035967;28;20037;-74
2022/06/12 08:55:50;;;;;;;3.53;1.23;;;28.70;62.90;;;;;;5034667;28;20041;-72
2022/06/12 08:58:37;;;;;;;5.38;1.92;;;28.60;60.60;;;;;;5051852;28;20394;-74
2022/06/12 09:01:03;;;;;;;3.72;1.33;;;27.10;62.70;;;;;;5035854;28;20037;-74
2022/06/12 09:03:35;;;;;;;2.83;1.45;;;26.90;64.00;;;;;;5035967;28;20414;-74
2022/06/12 09:06:06;;;;;;;3.13;1.30;;;27.80;63.30;;;;;;5039923;28;20025;-74
2022/06/12 09:08:48;;;;;;;4.95;1.60;;;28.70;60.30;;;;;;5034869;28;20053;-75
2022/06/12 09:11:29;;;;;;;3.97;1.90;;;29.60;62.00;;;;;;5036616;28;20026;-74
2022/06/12 09:14:32;;;;;;;2.65;1.13;;;28.80;61.10;;;;;;5043973;28;20053;-75
2022/06/12 09:17:11;;;;;;;4.88;1.35;;;28.80;62.40;;;;;;5044235;28;20041;-74
2022/06/12 09:19:55;;;;;;;2.67;1.40;;;28.20;61.70;;;;;;5035246;28;20033;-74
2022/06/12 09:22:47;;;;;;;3.38;1.20;;;27.70;61.20;;;;;;5038191;28;20041;-73
2022/06/12 09:25:30;;;;;;;2.42;1.42;;;27.30;60.50;;;;;;5042411;28;20033;-74
2022/06/12 09:28:39;;;;;;;1.90;1.38;;;27.40;61.00;;;;;;5035350;28;20497;-74
2022/06/12 09:31:12;;;;;;;4.90;1.38;;;27.60;60.10;;;;;;5035068;28;20501;-75
2022/06/12 09:33:56;;;;;;;3.60;1.20;;;27.40;60.70;;;;;;5038386;28;20033;-74
2022/06/12 09:36:22;;;;;;;3.05;1.67;;;27.30;61.20;;;;;;5043120;28;20057;-76
2022/06/12 09:39:07;;;;;;;2.55;1.23;;;27.90;58.90;;;;;;5037499;28;20029;-73
2022/06/12 09:41:40;;;;;;;3.60;1.45;;;27.60;58.90;;;;;;5035868;28;20493;-74
2022/06/12 09:44:30;;;;;;;5.72;1.40;;;28.10;57.30;;;;;;5035033;28;20040;-74
2022/06/12 09:47:08;;;;;;;1.80;1.23;;;29.10;57.10;;;;;;5035356;28;21532;-73
2022/06/12 09:50:05;;;;;;;4.82;1.10;;;28.70;59.70;;;;;;5039142;28;20044;-75
2022/06/12 09:52:37;;;;;;;3.42;1.10;;;28.60;56.30;;;;;;5035497;28;20045;-75
2022/06/12 09:55:09;;;;;;;2.35;1.15;;;28.20;57.20;;;;;;5034752;28;20060;-73
2022/06/12 09:58:00;;;;;;;2.10;1.30;;;28.10;57.30;;;;;;5050274;28;20470;-74
2022/06/12 10:00:36;;;;;;;1.80;1.13;;;29.00;56.70;;;;;;5045618;28;20040;-74
2022/06/12 10:03:11;;;;;;;23.42;2.33;;;29.50;56.20;;;;;;5034667;28;20478;-75
2022/06/12 10:06:07;;;;;;;1.65;1.02;;;28.90;56.00;;;;;;5034275;28;20387;-73
2022/06/12 10:08:57;;;;;;;3.28;1.60;;;28.60;56.20;;;;;;5041385;28;20028;-74
2022/06/12 10:11:37;;;;;;;3.05;1.65;;;27.70;56.80;;;;;;5037599;28;20030;-77
2022/06/12 10:14:35;;;;;;;3.83;1.58;;;28.30;56.00;;;;;;5047507;28;20053;-74
2022/06/12 10:17:11;;;;;;;3.30;1.23;;;28.50;56.60;;;;;;5034486;28;20049;-74
2022/06/12 10:19:54;;;;;;;4.90;1.88;;;28.90;56.30;;;;;;5041857;28;20462;-74
2022/06/12 10:22:29;;;;;;;4.72;2.50;;;28.50;55.90;;;;;;5054152;28;20382;-73
2022/06/12 10:24:57;;;;;;;4.55;2.33;;;28.30;57.30;;;;;;5034133;28;20041;-75
2022/06/12 10:27:25;;;;;;;3.03;1.45;;;27.80;56.90;;;;;;5034327;28;20033;-78
2022/06/12 10:29:55;;;;;;;4.47;2.50;;;27.20;58.40;;;;;;5034610;28;20025;-75
2022/06/12 10:32:26;;;;;;;4.47;1.70;;;27.60;59.60;;;;;;5034802;28;20030;-75
2022/06/12 10:34:55;;;;;;;3.22;1.30;;;28.10;57.90;;;;;;5041518;28;20474;-75
2022/06/12 10:37:28;;;;;;;2.97;1.33;;;28.10;57.90;;;;;;5034237;28;20029;-75
2022/06/12 10:40:21;;;;;;;4.20;1.92;;;28.50;59.60;;;;;;5033939;28;20040;-75
2022/06/12 10:42:58;;;;;;;7.30;2.30;;;28.50;57.90;;;;;;5034241;28;20038;-75
2022/06/12 10:45:27;;;;;;;3.13;1.65;;;28.30;57.50;;;;;;5052124;28;20394;-77
2022/06/12 10:47:57;;;;;;;5.13;1.77;;;28.40;58.20;;;;;;5041034;28;20040;-76
2022/06/12 10:50:32;;;;;;;4.85;1.48;;;28.40;58.80;;;;;;5048081;28;20466;-74
2022/06/12 10:53:08;;;;;;;3.17;2.17;;;28.70;57.10;;;;;;5033187;28;20373;-75
2022/06/12 10:55:49;;;;;;;3.13;2.05;;;28.30;56.60;;;;;;5043531;28;20029;-75
2022/06/12 10:58:47;;;;;;;3.17;1.85;;;28.20;57.10;;;;;;5032622;28;20045;-75
2022/06/12 11:01:42;;;;;;;3.97;1.40;;;28.20;57.60;;;;;;5032865;28;20068;-75
2022/06/12 11:04:37;;;;;;;3.92;1.80;;;28.40;57.20;;;;;;5033881;28;20044;-76
2022/06/12 11:07:20;;;;;;;3.30;1.38;;;28.40;57.30;;;;;;5039674;28;20033;-75
2022/06/12 11:10:17;;;;;;;3.78;2.22;;;28.70;57.00;;;;;;5043980;28;20026;-75
2022/06/12 11:12:54;;;;;;;2.90;1.40;;;28.80;56.00;;;;;;5033690;28;20057;-75
2022/06/12 11:15:48;;;;;;;2.97;1.38;;;28.50;56.30;;;;;;5033930;28;20044;-75
2022/06/12 11:18:24;;;;;;;2.28;1.73;;;28.50;56.90;;;;;;5033545;28;20041;-75
2022/06/12 11:21:12;;;;;;;3.80;1.65;;;28.10;55.90;;;;;;5033340;28;20032;-74
2022/06/12 11:24:22;;;;;;;2.10;1.42;;;28.40;57.30;;;;;;5033193;28;20033;-75
2022/06/12 11:27:25;;;;;;;3.80;1.40;;;28.90;57.40;;;;;;5030852;28;20041;-74
2022/06/12 11:30:17;;;;;;;3.40;1.52;;;29.00;55.70;;;;;;5034274;28;20024;-75
2022/06/12 11:33:14;;;;;;;2.90;1.45;;;29.30;56.20;;;;;;5045939;28;20467;-75
2022/06/12 11:35:49;;;;;;;3.00;1.45;;;29.50;55.20;;;;;;5032917;28;20056;-75
2022/06/12 11:38:24;;;;;;;3.13;1.33;;;29.20;55.50;;;;;;5032934;28;20033;-74
2022/06/12 11:41:13;;;;;;;2.38;1.15;;;28.50;55.30;;;;;;5034514;28;20036;-75
2022/06/12 11:43:44;;;;;;;2.85;1.60;;;28.10;56.30;;;;;;5041501;28;20037;-75
2022/06/12 11:46:26;;;;;;;4.72;1.00;;;28.10;56.30;;;;;;5034583;28;20395;-75
2022/06/12 11:49:13;;;;;;;3.13;1.05;;;28.30;56.50;;;;;;5036650;28;20037;-76
2022/06/12 11:52:07;;;;;;;4.10;1.40;;;28.60;55.80;;;;;;5033132;28;20058;-74
2022/06/12 11:55:05;;;;;;;3.50;1.20;;;28.80;54.20;;;;;;5033405;28;20037;-75
2022/06/12 11:57:31;;;;;;;5.88;1.67;;;28.70;54.10;;;;;;5032927;28;20060;-74
2022/06/12 12:00:12;;;;;;;3.42;1.40;;;28.80;54.50;;;;;;5032399;28;20034;-74
2022/06/12 12:02:42;;;;;;;2.95;1.73;;;28.80;54.90;;;;;;5045228;28;20470;-74
2022/06/12 12:05:26;;;;;;;4.20;1.45;;;28.60;54.30;;;;;;5039164;28;20041;-73
2022/06/12 12:08:16;;;;;;;3.35;1.25;;;28.50;55.30;;;;;;5043013;28;20052;-73
2022/06/12 12:10:54;;;;;;;5.40;1.63;;;29.20;54.50;;;;;;5051311;28;20025;-74
2022/06/12 12:13:42;;;;;;;4.93;1.77;;;29.30;55.60;;;;;;5051184;28;20483;-74
2022/06/12 12:16:30;;;;;;;3.53;1.65;;;28.80;55.50;;;;;;5032900;28;20030;-74
2022/06/12 12:19:06;;;;;;;4.05;1.38;;;28.00;55.90;;;;;;5048189;28;20033;-75
2022/06/12 12:21:42;;;;;;;2.60;1.02;;;27.60;57.00;;;;;;5031503;28;20029;-73
2022/06/12 12:24:14;;;;;;;4.47;1.60;;;27.40;56.60;;;;;;5032326;28;20394;-73
2022/06/12 12:26:43;;;;;;;2.60;1.27;;;27.20;57.80;;;;;;5032167;28;20037;-74
2022/06/12 12:29:15;;;;;;;5.83;1.73;;;27.60;56.90;;;;;;5047884;28;20041;-73
2022/06/12 12:31:44;;;;;;;3.45;1.33;;;27.70;56.40;;;;;;5032516;28;20032;-74
2022/06/12 12:34:11;;;;;;;4.43;2.05;;;27.80;56.70;;;;;;5032387;28;20040;-74
2022/06/12 12:42:38;;;;;;;2.80;1.25;;;28.10;57.10;;;;;;5017955;28;20057;-74
2022/06/12 12:45:22;;;;;;;1.90;1.23;;;28.10;54.80;;;;;;5031900;28;20053;-75
2022/06/12 12:48:07;;;;;;;5.30;1.65;;;27.80;56.10;;;;;;5031866;28;20041;-73
2022/06/12 12:50:49;;;;;;;2.92;1.02;;;27.70;55.70;;;;;;5033385;28;20045;-73
2022/06/12 12:53:37;;;;;;;4.68;1.70;;;27.70;56.70;;;;;;5032422;28;20052;-73
2022/06/12 12:56:12;;;;;;;5.35;1.25;;;27.70;56.70;;;;;;5032269;28;20418;-74
2022/06/12 12:58:56;;;;;;;2.47;1.10;;;28.20;55.20;;;;;;5033288;28;20034;-73
2022/06/12 13:01:25;;;;;;;3.40;1.05;;;28.30;54.20;;;;;;5047355;28;20029;-75
2022/06/12 13:04:10;;;;;;;4.63;1.47;;;28.50;55.20;;;;;;5033597;28;20534;-75
2022/06/12 13:07:22;;;;;;;4.13;1.20;;;28.70;53.50;;;;;;5047675;28;20295;-74
2022/06/12 13:10:19;;;;;;;3.53;1.05;;;29.00;54.20;;;;;;5033628;28;20174;-75
2022/06/12 13:12:59;;;;;;;6.55;1.40;;;29.00;52.70;;;;;;5030707;28;20483;-73
2022/06/12 13:15:33;;;;;;;;;;;29.10;52.80;;;;;;5049726;28;20037;-74
2022/06/12 13:18:24;;;;;;;2.13;0.90;;;29.20;51.90;;;;;;5032208;28;20290;-73
2022/06/12 13:21:18;;;;;;;4.28;1.50;;;29.30;54.00;;;;;;5033774;28;20025;-75
2022/06/12 13:23:57;;;;;;;3.40;1.80;;;29.60;52.90;;;;;;5040864;28;20041;-74
2022/06/12 13:26:25;;;;;;;2.78;1.15;;;29.70;52.00;;;;;;5051947;28;20045;-73
2022/06/12 13:28:59;;;;;;;2.10;1.50;;;29.60;53.50;;;;;;5031514;28;20486;-74
2022/06/12 13:31:33;;;;;;;3.75;1.10;;;29.10;53.80;;;;;;5040444;28;20390;-74
2022/06/12 13:34:02;;;;;;;5.32;1.27;;;28.60;53.60;;;;;;5032875;28;20037;-74
2022/06/12 13:36:38;;;;;;;2.53;1.10;;;28.40;53.70;;;;;;5021828;28;20034;-77
2022/06/12 13:39:17;;;;;;;2.53;1.15;;;28.60;54.30;;;;;;5035417;28;20030;-74
2022/06/12 13:41:47;;;;;;;2.15;1.30;;;29.00;52.50;;;;;;5035887;28;20467;-73
2022/06/12 13:44:23;;;;;;;2.33;1.00;;;28.80;52.50;;;;;;5035556;28;20056;-74
2022/06/12 13:46:49;;;;;;;3.80;1.25;;;28.50;52.20;;;;;;5035242;28;20041;-73
2022/06/12 13:49:39;;;;;;;3.85;1.15;;;28.50;52.60;;;;;;5034921;28;20040;-73